logo
Search for airport 
image banner adimage banner adimage banner ad
image banner ad

FLGE - Mukinge Mission

Located in District de Kasempa, Zambia

ICAO - , IATA -

Data provided by Airmate  

General information

Coordinates: S13°28'38" E25°51'21"
Elevation is 4031 feet MSL.
Magnetic variation is -4° East
View others Airports in North-Western Province

Operational data

Special qualification required
Current time UTC:
Current local time:
Weather at : - ( 0 km )
METAR: PABA 191513Z 09018KT 3/4SM -SN BR OVC004 M06/M07 A3031 RMK AO2 VIS 1/2V1 1/4 CIG 002V009 P0000 FZRANO
View NOTAMs / SUP AIP / TFR affecting this airport [VIEW]
Communications frequencies: [VIEW]

Runways:

RWY identifierQFULength (ft)Width (ft)SurfaceLDA (ft)
0326°338254GRAS
21206°338254GRAS

Airport contact information

Address: District de Kasempa Zambia

Satellite view of FLGE